Time;durP1;ratioP1;P1;durP2;ratioP2;P2;SDS_P1;SDS_P2;PMS_P1;PMS_P2;Temp;Humidity;BMP_temperature;BMP_pressure;BME280_temperature;BME280_humidity;BME280_pressure;Samples;Min_cycle;Max_cycle;Signal;HPM_P1;HPM_P2
2023/05/14 00:00:28;;;;;;;6.30;5.80;;;14.10;99.90;;;-141.84;61.08;20417.50;5054464;28;20225;-53
2023/05/14 00:02:56;;;;;;;6.18;5.63;;;14.10;99.90;;;-141.84;61.71;20391.06;5054046;28;20714;-49
2023/05/14 00:05:25;;;;;;;6.30;5.78;;;14.10;99.90;;;-141.84;61.46;20378.88;5054211;28;20239;-55
2023/05/14 00:07:55;;;;;;;6.05;5.55;;;14.00;99.90;;;-141.84;61.36;20403.25;5046482;28;20719;-53
2023/05/14 00:10:23;;;;;;;6.05;5.55;;;14.10;99.90;;;-141.84;61.21;20374.81;5034423;28;20205;-54
2023/05/14 00:12:51;;;;;;;6.07;5.57;;;14.00;99.90;;;-141.84;61.17;20405.31;5051795;28;20695;-56
2023/05/14 00:15:19;;;;;;;6.53;5.93;;;14.00;99.90;;;-141.84;61.53;20364.66;5054254;28;20288;-55
2023/05/14 00:17:48;;;;;;;7.43;6.13;;;14.00;99.90;;;-141.84;61.40;20376.84;5053822;28;20209;-55
2023/05/14 00:20:16;;;;;;;5.95;5.45;;;14.00;99.90;;;-141.84;61.15;20391.06;5052937;28;20232;-56
2023/05/14 00:22:44;;;;;;;7.13;5.78;;;13.90;99.90;;;-141.84;60.87;20391.06;5053228;28;20256;-56
2023/05/14 00:25:14;;;;;;;6.15;5.40;;;14.00;99.90;;;-141.84;60.86;20431.72;5054039;28;20212;-55
2023/05/14 00:27:42;;;;;;;5.97;5.38;;;14.00;99.90;;;-141.84;61.50;20382.94;5053895;28;20205;-56
2023/05/14 00:30:11;;;;;;;6.32;5.80;;;14.00;99.90;;;-141.84;60.94;20370.75;5053973;28;20198;-54
2023/05/14 00:32:39;;;;;;;8.60;6.22;;;14.00;99.90;;;-141.84;61.57;20370.75;5033774;28;20202;-55
2023/05/14 00:35:08;;;;;;;6.80;6.20;;;14.00;99.90;;;-141.84;62.06;20346.34;5046855;28;20271;-56
2023/05/14 00:37:37;;;;;;;7.20;6.55;;;13.90;99.90;;;-141.84;61.90;20413.44;5052784;28;20325;-54
2023/05/14 00:40:07;;;;;;;6.50;5.95;;;13.90;99.90;;;-141.84;61.59;20354.47;5053803;28;20216;-55
2023/05/14 00:42:37;;;;;;;7.47;6.33;;;13.90;99.90;;;-141.84;61.70;20368.72;5035791;28;20212;-55
2023/05/14 00:45:07;;;;;;;6.55;6.05;;;13.80;99.90;;;-141.84;61.41;20356.50;5033859;28;20206;-54
2023/05/14 00:47:38;;;;;;;6.50;5.90;;;13.90;99.90;;;-141.84;62.23;20370.75;5033230;28;20678;-54
2023/05/14 00:50:08;;;;;;;6.25;5.65;;;13.80;99.90;;;-141.84;62.81;20340.25;5032991;28;20627;-52
2023/05/14 00:52:38;;;;;;;6.60;5.90;;;13.80;99.90;;;-141.84;62.28;20326.03;5046967;28;20208;-53
2023/05/14 00:55:08;;;;;;;6.25;5.65;;;13.70;99.90;;;-141.84;61.89;20321.97;5053548;28;20213;-55
2023/05/14 00:57:38;;;;;;;6.30;5.70;;;13.80;99.90;;;-141.84;61.85;20382.94;5053336;28;20193;-52
2023/05/14 01:00:09;;;;;;;7.50;6.80;;;13.80;99.90;;;-141.84;62.04;20358.56;5053756;28;20205;-54
2023/05/14 01:02:37;;;;;;;7.72;6.50;;;13.80;99.90;;;-141.84;61.95;20354.47;5053195;28;20241;-56
2023/05/14 01:05:07;;;;;;;6.53;5.93;;;13.80;99.90;;;-141.84;62.00;20342.28;5053148;28;20227;-54
2023/05/14 01:07:49;;;;;;;6.20;5.70;;;13.80;99.90;;;-141.84;62.02;20362.63;5052531;28;20569;-55
2023/05/14 01:10:27;;;;;;;6.43;5.93;;;13.80;99.90;;;-141.84;61.61;20391.06;5053324;28;20182;-52
2023/05/14 01:13:13;;;;;;;6.38;5.88;;;13.80;99.90;;;-141.84;61.78;20368.72;5052870;28;20193;-55
2023/05/14 01:15:44;;;;;;;6.93;6.28;;;13.80;99.90;;;-141.84;62.14;20374.81;5048290;28;20187;-55
2023/05/14 01:18:18;;;;;;;6.22;5.65;;;13.80;99.90;;;-141.84;62.39;20344.31;5033063;28;20593;-57
2023/05/14 01:20:50;;;;;;;5.97;5.45;;;13.70;99.90;;;-141.84;63.13;20313.84;5032391;28;20711;-54
2023/05/14 01:23:20;;;;;;;6.97;6.20;;;13.60;99.90;;;-141.84;63.18;20311.78;5032497;28;20186;-52
2023/05/14 01:25:48;;;;;;;6.40;5.80;;;13.60;99.90;;;-141.84;62.96;20336.19;5033148;28;20230;-52
2023/05/14 01:28:19;;;;;;;6.53;5.97;;;13.60;99.90;;;-141.84;62.28;20326.03;5047765;28;20201;-53
2023/05/14 01:30:57;;;;;;;6.73;6.13;;;13.60;99.90;;;-141.84;62.45;20297.56;5053004;28;20181;-54
2023/05/14 01:33:29;;;;;;;7.90;6.13;;;13.60;99.90;;;-141.84;62.00;20358.56;5052595;28;20189;-54
2023/05/14 01:35:57;;;;;;;6.40;5.80;;;13.70;99.90;;;-141.84;62.58;20307.72;5052581;28;20206;-54
2023/05/14 01:38:30;;;;;;;7.03;6.40;;;13.60;99.90;;;-141.84;62.92;20330.09;5052031;28;20542;-54
2023/05/14 01:41:00;;;;;;;6.97;6.28;;;13.60;99.90;;;-141.84;63.18;20311.78;5047911;28;20585;-54
2023/05/14 01:43:30;;;;;;;6.90;6.30;;;13.60;99.90;;;-141.84;63.36;20295.53;5032506;28;20225;-54
2023/05/14 01:45:58;;;;;;;7.10;6.40;;;13.50;99.90;;;-141.84;63.30;20250.81;5032687;28;20202;-53
2023/05/14 01:48:28;;;;;;;6.90;6.30;;;13.40;99.90;;;-141.84;63.64;20246.75;5031608;28;20241;-54
2023/05/14 01:50:56;;;;;;;7.80;7.00;;;13.40;99.90;;;-141.84;63.31;20287.41;5049165;28;20214;-56
2023/05/14 01:53:26;;;;;;;7.33;6.63;;;13.40;99.90;;;-141.84;63.50;20281.31;5051747;28;20201;-55
2023/05/14 01:55:54;;;;;;;6.97;6.37;;;13.40;99.90;;;-141.84;63.85;20285.38;5052422;28;20205;-52
2023/05/14 01:58:22;;;;;;;7.77;7.07;;;13.40;99.90;;;-141.84;64.28;20285.38;5052179;28;20206;-55
2023/05/14 02:00:51;;;;;;;7.13;6.53;;;13.40;99.90;;;-141.84;64.27;20250.81;5052101;28;20208;-54
2023/05/14 02:03:19;;;;;;;7.47;6.87;;;13.30;99.90;;;-141.84;64.56;20260.97;5051850;28;20720;-53
2023/05/14 02:05:47;;;;;;;7.93;7.10;;;13.30;99.90;;;-141.84;64.46;20250.81;5052025;28;20255;-54
2023/05/14 02:08:15;;;;;;;7.17;6.47;;;13.30;99.90;;;-141.84;64.70;20313.84;5051250;28;20204;-53
2023/05/14 02:10:44;;;;;;;7.60;6.93;;;13.30;99.90;;;-141.84;64.51;20260.97;5052043;28;20213;-52
2023/05/14 02:13:13;;;;;;;7.67;6.87;;;13.30;99.90;;;-141.84;64.83;20281.31;5051650;28;20619;-53
2023/05/14 02:15:41;;;;;;;7.57;6.80;;;13.30;99.90;;;-141.84;64.60;20299.59;5047114;28;20213;-55
2023/05/14 02:18:09;;;;;;;7.93;7.23;;;13.30;99.90;;;-141.84;64.47;20277.25;5031968;28;20209;-53
2023/05/14 02:20:38;;;;;;;8.00;7.27;;;13.30;99.90;;;-141.84;64.60;20265.03;5031475;28;20229;-55
2023/05/14 02:23:06;;;;;;;7.55;6.85;;;13.30;99.90;;;-141.84;64.17;20283.34;5031284;28;20210;-55
2023/05/14 02:25:35;;;;;;;7.23;6.60;;;13.40;99.90;;;-141.84;64.55;20281.31;5031861;28;20198;-55
2023/05/14 02:28:04;;;;;;;7.53;6.80;;;13.40;99.90;;;-141.84;65.12;20281.31;5031553;28;20647;-51
2023/05/14 02:30:33;;;;;;;8.07;7.37;;;13.30;99.90;;;-141.84;64.04;20258.94;5031485;28;20217;-52
2023/05/14 02:33:01;;;;;;;8.00;7.30;;;13.40;99.90;;;-141.84;64.09;20301.63;5031407;28;20282;-56
2023/05/14 02:35:29;;;;;;;8.17;7.40;;;13.40;99.90;;;-141.84;64.38;20277.25;5047600;28;20278;-53
2023/05/14 02:37:58;;;;;;;7.70;7.00;;;13.40;99.90;;;-141.84;64.30;20279.28;5051150;28;20204;-52
2023/05/14 02:40:26;;;;;;;7.53;6.82;;;13.40;99.90;;;-141.84;65.05;20267.09;5051352;28;20227;-54
2023/05/14 02:42:54;;;;;;;8.00;7.20;;;13.30;99.90;;;-141.84;64.82;20240.66;5031633;28;20230;-53
2023/05/14 02:45:24;;;;;;;7.50;6.80;;;13.30;99.90;;;-141.84;64.79;20273.19;5031416;28;20202;-54
2023/05/14 02:47:52;;;;;;;8.50;7.70;;;13.30;99.90;;;-141.84;64.41;20269.13;5031103;28;20690;-56
2023/05/14 02:50:20;;;;;;;8.43;7.10;;;13.30;99.90;;;-141.84;64.47;20289.44;5030845;28;20209;-54
2023/05/14 02:52:49;;;;;;;8.05;7.25;;;13.30;99.90;;;-141.84;64.88;20277.25;5046670;28;20194;-53
2023/05/14 02:55:17;;;;;;;7.27;6.60;;;13.30;99.90;;;-141.84;65.46;20248.78;5051302;28;20201;-54
2023/05/14 02:57:45;;;;;;;7.97;7.20;;;13.20;99.90;;;-141.84;65.41;20228.47;5051135;28;20676;-54
2023/05/14 03:00:14;;;;;;;8.10;7.30;;;13.20;99.90;;;-141.84;65.46;20232.53;5051570;28;20208;-54
2023/05/14 03:02:44;;;;;;;8.20;7.50;;;13.20;99.90;;;-141.84;65.63;20216.25;5055275;28;20264;-53
2023/05/14 03:05:13;;;;;;;8.37;7.57;;;13.10;99.90;;;-141.84;65.81;20271.16;5048243;28;20281;-53
2023/05/14 03:07:41;;;;;;;8.47;7.73;;;13.20;99.90;;;-141.84;66.09;20210.16;5045210;28;20209;-54
2023/05/14 03:10:11;;;;;;;7.77;7.07;;;13.10;99.90;;;-141.84;65.97;20228.47;5055255;28;20204;-51
2023/05/14 03:12:39;;;;;;;8.90;7.50;;;13.10;99.90;;;-141.84;66.51;20220.34;5055246;28;20558;-53
2023/05/14 03:15:08;;;;;;;9.00;8.10;;;13.00;99.90;;;-141.84;66.12;20216.25;5055663;28;20213;-54
2023/05/14 03:17:37;;;;;;;7.70;7.07;;;13.00;99.90;;;-141.84;66.22;20195.94;5035661;28;20563;-52
2023/05/14 03:20:08;;;;;;;8.00;7.30;;;13.00;99.90;;;-141.84;66.71;20206.09;5045137;28;20205;-52
2023/05/14 03:22:36;;;;;;;7.83;7.13;;;13.00;99.90;;;-141.84;67.08;20155.28;5054809;28;20210;-53
2023/05/14 03:25:05;;;;;;;8.30;7.50;;;13.00;99.90;;;-141.84;66.56;20204.06;5055202;28;20205;-54
2023/05/14 03:27:33;;;;;;;8.63;7.90;;;13.00;99.90;;;-141.84;66.98;20183.75;5054889;28;20206;-55
2023/05/14 03:30:01;;;;;;;8.07;7.37;;;13.00;99.90;;;-141.84;67.78;20191.88;5055090;28;20209;-53
2023/05/14 03:32:30;;;;;;;8.37;7.57;;;13.00;99.90;;;-141.84;68.33;20169.53;5054521;28;20212;-54
2023/05/14 03:34:58;;;;;;;8.70;7.90;;;12.90;99.90;;;-141.84;68.15;20161.38;5054533;28;20640;-54
2023/05/14 03:37:28;;;;;;;8.17;7.47;;;12.80;99.90;;;-141.84;68.48;20167.47;5054495;28;20208;-54
2023/05/14 03:39:56;;;;;;;8.57;7.70;;;12.70;99.90;;;-141.84;68.59;20132.94;5054825;28;20202;-56
2023/05/14 03:42:24;;;;;;;8.50;7.60;;;12.70;99.90;;;-141.84;68.82;20132.94;5038942;28;20222;-52
2023/05/14 03:44:52;;;;;;;8.60;7.50;;;12.70;99.90;;;-141.84;68.81;20145.13;5040987;28;20216;-55
2023/05/14 03:47:20;;;;;;;11.23;7.20;;;12.70;99.90;;;-141.84;69.44;20122.78;5054695;28;20212;-55
2023/05/14 03:49:49;;;;;;;8.80;8.00;;;12.70;99.90;;;-141.84;69.43;20155.28;5040766;28;20230;-54
2023/05/14 03:52:17;;;;;;;8.37;7.53;;;12.60;99.90;;;-141.84;68.59;20177.66;5045434;28;20193;-55
2023/05/14 03:54:49;;;;;;;7.67;6.87;;;12.70;99.90;;;-141.84;68.52;20175.63;5054223;28;20652;-54
2023/05/14 03:57:17;;;;;;;8.40;7.70;;;12.70;99.90;;;-141.84;68.38;20147.16;5054765;28;20213;-53
2023/05/14 03:59:45;;;;;;;8.23;7.43;;;12.80;99.90;;;-141.84;68.15;20173.59;5054703;28;20205;-55
2023/05/14 04:02:13;;;;;;;8.53;7.73;;;12.80;99.90;;;-141.84;67.47;20254.88;5054282;28;20205;-54
2023/05/14 04:04:41;;;;;;;7.83;7.07;;;12.80;99.90;;;-141.84;67.88;20195.94;5045149;28;20274;-55
2023/05/14 04:07:10;;;;;;;7.55;6.80;;;12.80;99.90;;;-141.84;67.58;20214.22;5037459;28;20201;-50
2023/05/14 04:09:38;;;;;;;8.10;7.40;;;12.90;99.90;;;-141.84;67.22;20181.72;5054586;28;20205;-54
2023/05/14 04:12:09;;;;;;;8.50;7.70;;;12.90;99.90;;;-141.84;66.97;20200.00;5041921;28;20218;-54
2023/05/14 04:14:37;;;;;;;7.77;7.07;;;13.00;99.90;;;-141.84;67.53;20179.69;5034470;28;20190;-55
2023/05/14 04:17:05;;;;;;;7.53;6.93;;;13.00;99.90;;;-141.84;67.47;20187.81;5049327;28;20201;-54
2023/05/14 04:19:33;;;;;;;8.02;7.32;;;12.90;99.90;;;-141.84;67.72;20197.97;5053826;28;20235;-53
2023/05/14 04:22:01;;;;;;;8.32;7.63;;;13.00;99.90;;;-141.84;67.81;20220.34;5054004;28;20198;-53
2023/05/14 04:24:29;;;;;;;8.13;7.33;;;13.00;99.90;;;-141.84;67.44;20224.41;5054040;28;20224;-56
2023/05/14 04:26:58;;;;;;;8.10;7.30;;;13.10;99.90;;;-141.84;66.77;20234.56;5053889;28;20576;-53
2023/05/14 04:29:27;;;;;;;7.72;7.03;;;13.20;99.90;;;-141.84;65.60;20248.78;5053889;28;20201;-54
2023/05/14 04:31:55;;;;;;;7.83;7.00;;;13.20;99.90;;;-141.84;65.65;20248.78;5053261;28;20206;-54
2023/05/14 04:34:23;;;;;;;7.77;7.07;;;13.30;99.90;;;-141.84;65.65;20271.16;5053589;28;20197;-51
2023/05/14 04:36:51;;;;;;;8.48;7.63;;;13.40;99.90;;;-141.84;64.90;20256.91;5053623;28;20201;-54
2023/05/14 04:39:20;;;;;;;7.83;7.13;;;13.40;99.90;;;-141.84;64.49;20324.00;5053879;28;20197;-58
2023/05/14 04:41:48;;;;;;;7.30;6.70;;;13.60;99.90;;;-141.84;64.78;20291.47;5041961;28;20578;-54
2023/05/14 04:44:16;;;;;;;7.40;6.70;;;13.60;99.90;;;-141.84;64.22;20321.97;5033399;28;20222;-53
2023/05/14 04:46:45;;;;;;;8.17;7.43;;;13.70;99.90;;;-141.84;63.69;20321.97;5033274;28;20210;-52
2023/05/14 04:49:13;;;;;;;7.80;7.10;;;13.80;99.90;;;-141.84;63.57;20334.16;5040944;28;20240;-55
2023/05/14 04:51:42;;;;;;;7.25;6.55;;;13.90;99.90;;;-141.84;62.89;20330.09;5053331;28;20202;-56
2023/05/14 04:54:10;;;;;;;7.40;6.70;;;13.90;99.90;;;-141.84;62.93;20391.06;5053527;28;20194;-52
2023/05/14 04:56:38;;;;;;;7.07;6.47;;;14.00;99.90;;;-141.84;62.43;20395.13;5053190;28;20198;-56
2023/05/14 04:59:06;;;;;;;7.95;7.10;;;14.10;99.90;;;-141.84;61.92;20423.59;5053190;28;20213;-54
2023/05/14 05:01:35;;;;;;;6.47;5.97;;;14.30;99.90;;;-141.84;61.77;20423.59;5053198;28;20250;-55
2023/05/14 05:04:04;;;;;;;6.95;6.35;;;14.40;99.90;;;-141.84;61.20;20488.63;5049187;28;20233;-54
2023/05/14 05:06:33;;;;;;;7.47;6.70;;;14.60;99.90;;;-141.84;59.79;20500.84;5033341;28;20202;-55
2023/05/14 05:09:01;;;;;;;7.93;7.13;;;14.80;99.90;;;-141.84;58.30;20610.59;5051398;28;20209;-53
2023/05/14 05:11:29;;;;;;;7.50;6.82;;;15.10;99.90;;;-141.84;56.78;20673.63;5050146;28;20548;-54
2023/05/14 05:13:57;;;;;;;8.05;7.35;;;15.30;99.90;;;-141.84;55.26;20718.34;5053148;28;20204;-53
2023/05/14 05:16:25;;;;;;;7.75;7.05;;;15.70;99.90;;;-141.84;55.82;20677.69;5052678;28;20678;-53
2023/05/14 05:18:54;;;;;;;7.63;6.88;;;15.70;99.90;;;-141.84;55.89;20700.03;5052975;28;20205;-53
2023/05/14 05:21:24;;;;;;;7.90;7.05;;;15.80;99.90;;;-141.84;56.34;20667.53;5060292;28;20664;-54
2023/05/14 05:23:52;;;;;;;8.00;7.28;;;15.80;99.90;;;-141.84;55.99;20677.69;5071689;28;20228;-52
2023/05/14 05:26:21;;;;;;;9.40;6.80;;;15.80;99.90;;;-141.84;56.25;20610.59;5072050;28;20208;-54
2023/05/14 05:28:49;;;;;;;7.57;6.97;;;15.70;99.90;;;-141.84;56.16;20663.47;5072829;28;20205;-55
2023/05/14 05:31:17;;;;;;;7.28;6.57;;;15.80;99.90;;;-141.84;55.40;20689.88;5072260;28;20204;-55
2023/05/14 05:33:47;;;;;;;8.18;7.47;;;16.00;99.90;;;-141.84;54.03;20801.69;5068886;28;20743;-53
2023/05/14 05:36:15;;;;;;;7.30;6.68;;;16.20;99.90;;;-141.84;53.63;20838.28;5032716;28;20198;-54
2023/05/14 05:38:45;;;;;;;7.72;7.03;;;16.40;99.90;;;-141.84;52.87;20880.97;5032472;28;20584;-55
2023/05/14 05:41:13;;;;;;;7.28;6.50;;;16.70;99.90;;;-141.84;52.64;20899.28;5031424;28;20206;-54
2023/05/14 05:43:41;;;;;;;7.30;6.70;;;16.80;99.90;;;-141.84;52.15;20964.31;5032431;28;20234;-53
2023/05/14 05:46:09;;;;;;;7.95;7.25;;;17.10;99.90;;;-141.84;51.67;20901.31;5032513;28;20206;-52
2023/05/14 05:48:38;;;;;;;8.13;7.30;;;17.20;99.90;;;-141.84;51.92;20937.91;5034907;28;20321;-55
2023/05/14 05:51:06;;;;;;;7.47;6.88;;;17.20;99.90;;;-141.84;52.14;20960.25;5051669;28;20201;-54
2023/05/14 05:53:34;;;;;;;6.85;6.25;;;17.20;99.90;;;-141.84;52.61;20923.66;5052193;28;20197;-56
2023/05/14 05:56:05;;;;;;;7.30;6.60;;;17.30;99.90;;;-141.84;52.02;20925.69;5051532;28;20669;-55
2023/05/14 05:58:33;;;;;;;8.32;7.43;;;17.40;99.90;;;-141.84;51.68;20984.66;5051484;28;20284;-55
2023/05/14 06:01:01;;;;;;;7.72;6.93;;;17.50;99.90;;;-141.84;51.04;20968.38;5052391;28;20626;-51
2023/05/14 06:03:30;;;;;;;7.40;6.70;;;17.60;99.90;;;-141.84;50.78;20974.50;5052207;28;20356;-55
2023/05/14 06:05:58;;;;;;;7.65;6.95;;;17.70;99.90;;;-141.84;51.29;21031.41;5051402;28;20212;-50
2023/05/14 06:08:26;;;;;;;7.53;6.82;;;17.70;99.90;;;-141.84;50.90;21039.53;5051789;28;20194;-55
2023/05/14 06:10:54;;;;;;;7.82;6.90;;;17.90;99.90;;;-141.84;50.67;21061.91;5036584;28;20576;-55
2023/05/14 06:13:24;;;;;;;7.07;6.45;;;18.00;99.90;;;-141.84;49.92;21126.97;5032035;28;20625;-52
2023/05/14 06:15:52;;;;;;;7.72;7.13;;;18.20;99.90;;;-141.84;49.43;21155.44;5033008;28;20260;-55
2023/05/14 06:18:20;;;;;;;6.97;6.32;;;18.30;99.90;;;-141.84;49.06;21165.59;5031514;28;20701;-54
2023/05/14 06:20:48;;;;;;;7.10;6.50;;;18.40;99.90;;;-141.84;48.66;21196.09;5031788;28;20201;-56
2023/05/14 06:23:16;;;;;;;7.40;6.70;;;18.70;99.90;;;-141.84;48.84;21216.41;5031525;28;20202;-55
2023/05/14 06:25:44;;;;;;;6.88;6.28;;;18.80;99.90;;;-141.84;48.61;21224.56;5031017;28;20582;-56
2023/05/14 06:28:13;;;;;;;7.15;6.50;;;18.80;99.90;;;-141.84;47.88;21190.00;5031792;28;20213;-54
2023/05/14 06:30:42;;;;;;;7.30;6.60;;;18.80;99.90;;;-141.84;48.52;21175.75;5031549;28;20681;-54
2023/05/14 06:33:12;;;;;;;9.27;7.38;;;18.70;99.90;;;-141.84;48.33;21143.22;5031637;28;20288;-55
2023/05/14 06:35:40;;;;;;;7.70;6.90;;;18.60;99.90;;;-141.84;48.31;21131.03;5048586;28;20564;-55
2023/05/14 06:38:08;;;;;;;7.75;7.05;;;18.40;99.90;;;-141.84;49.05;21124.94;5051637;28;20205;-54
2023/05/14 06:40:36;;;;;;;7.45;6.80;;;18.40;99.90;;;-141.84;49.05;21096.47;5038798;28;20289;-55
2023/05/14 06:43:05;;;;;;;7.43;6.65;;;18.30;99.90;;;-141.84;49.41;21088.34;5031933;28;20455;-56
2023/05/14 06:45:33;;;;;;;9.90;6.85;;;18.30;99.90;;;-141.84;49.07;21080.19;5031725;28;20232;-55
2023/05/14 06:48:04;;;;;;;6.88;6.20;;;18.30;99.90;;;-141.84;49.58;21106.63;5031176;28;20233;-54
2023/05/14 06:50:32;;;;;;;7.28;6.68;;;18.30;99.90;;;-141.84;49.38;21106.63;5050216;28;20228;-54
2023/05/14 06:53:00;;;;;;;7.47;6.72;;;18.30;99.90;;;-141.84;49.36;21070.03;5050859;28;20201;-56
2023/05/14 06:55:28;;;;;;;7.03;6.43;;;18.30;99.90;;;-141.84;49.36;21092.41;5050801;28;20202;-54
2023/05/14 06:57:56;;;;;;;7.32;6.63;;;18.20;99.90;;;-141.84;49.43;21076.13;5051361;28;20197;-56
2023/05/14 07:00:25;;;;;;;6.80;6.22;;;18.20;99.90;;;-141.84;49.75;21078.16;5051239;28;20212;-56
2023/05/14 07:02:53;;;;;;;8.40;6.50;;;18.20;99.90;;;-141.84;48.91;21104.59;5051260;28;20284;-54
2023/05/14 07:05:24;;;;;;;6.80;6.15;;;18.30;99.90;;;-141.84;48.78;21114.75;5051122;28;20267;-54
2023/05/14 07:07:53;;;;;;;6.97;6.28;;;18.20;99.90;;;-141.84;49.22;21082.25;5051699;28;20193;-73
2023/05/14 07:10:21;;;;;;;6.40;5.80;;;18.10;99.90;;;-141.84;49.08;21094.44;5050559;28;20213;-74
2023/05/14 07:12:50;;;;;;;6.75;6.15;;;18.20;99.90;;;-141.84;48.96;21074.09;5044915;28;20225;-75
2023/05/14 07:15:18;;;;;;;7.13;6.43;;;18.10;99.90;;;-141.84;48.98;21055.81;5049758;28;20605;-75
2023/05/14 07:17:46;;;;;;;6.75;6.13;;;18.00;99.90;;;-141.84;49.76;21041.56;5031920;28;20202;-77
2023/05/14 07:20:14;;;;;;;7.72;7.03;;;18.00;99.90;;;-141.84;49.52;21000.91;5032116;28;20202;-75
2023/05/14 07:22:44;;;;;;;6.70;6.10;;;17.70;99.90;;;-141.84;49.36;21033.44;5031928;28;20202;-79
2023/05/14 07:25:13;;;;;;;6.57;5.97;;;17.80;99.90;;;-141.84;49.71;21051.75;5030727;28;20222;-77
2023/05/14 07:27:41;;;;;;;7.07;5.95;;;17.80;99.90;;;-141.84;48.65;21072.06;5031576;28;20545;-77
2023/05/14 07:30:10;;;;;;;6.78;6.18;;;17.80;99.90;;;-141.84;48.98;21068.00;5031168;28;20206;-76
2023/05/14 07:32:38;;;;;;;6.70;6.18;;;17.80;99.90;;;-141.84;49.44;21004.97;5031059;28;20678;-75
2023/05/14 07:35:07;;;;;;;5.88;5.38;;;17.80;99.90;;;-141.84;49.43;21065.97;5043919;28;20208;-72
2023/05/14 07:37:36;;;;;;;5.20;4.80;;;17.80;99.90;;;-141.84;49.43;21045.63;5052006;28;20227;-76
2023/05/14 07:40:07;;;;;;;5.00;4.50;;;17.90;99.90;;;-141.84;49.24;21053.78;5050067;28;20217;-76
2023/05/14 07:42:35;;;;;;;5.10;4.60;;;18.10;99.90;;;-141.84;49.15;21094.44;5052552;28;20197;-76
2023/05/14 07:45:05;;;;;;;6.38;5.88;;;18.20;99.90;;;-141.84;49.10;21096.47;5051722;28;20224;-76
2023/05/14 07:47:34;;;;;;;6.60;5.95;;;18.30;99.90;;;-141.84;48.30;21098.50;5053469;28;20205;-72
2023/05/14 07:50:02;;;;;;;6.65;5.97;;;18.20;99.90;;;-141.84;48.50;21106.63;5040129;28;20226;-73
2023/05/14 07:52:30;;;;;;;6.68;6.07;;;18.20;99.90;;;-141.84;48.29;21114.75;5048149;28;20205;-74
2023/05/14 07:55:00;;;;;;;6.20;5.57;;;18.10;99.90;;;-141.84;48.13;21110.69;5054071;28;20197;-74
2023/05/14 07:57:29;;;;;;;5.80;5.30;;;18.10;99.90;;;-141.84;48.71;21139.16;5054920;28;20208;-73
2023/05/14 07:59:59;;;;;;;8.05;6.20;;;18.20;99.90;;;-141.84;48.05;21096.47;5054228;28;20439;-73
2023/05/14 08:02:27;;;;;;;6.15;5.65;;;18.20;99.90;;;-141.84;46.36;21165.59;5054420;28;20615;-75
2023/05/14 08:04:55;;;;;;;6.13;5.50;;;18.30;99.90;;;-141.84;47.43;21124.94;5054435;28;20273;-74
2023/05/14 08:07:23;;;;;;;6.05;5.55;;;18.20;99.90;;;-141.84;48.02;21092.41;5054729;28;20205;-73
2023/05/14 08:09:51;;;;;;;6.45;5.85;;;18.20;99.90;;;-141.84;47.77;21165.59;5047379;28;20217;-73
2023/05/14 08:12:20;;;;;;;8.45;5.90;;;18.30;99.90;;;-141.84;47.81;21151.34;5047802;28;20209;-74
2023/05/14 08:14:49;;;;;;;5.85;5.25;;;18.30;99.90;;;-141.84;48.00;21118.84;5054569;28;20201;-74
2023/05/14 08:17:17;;;;;;;5.90;5.30;;;18.20;99.90;;;-141.84;48.05;21092.41;5036470;28;20573;-74
2023/05/14 08:19:46;;;;;;;5.25;4.75;;;18.10;99.90;;;-141.84;48.56;21074.09;5033143;28;20216;-73
2023/05/14 08:22:14;;;;;;;5.80;5.20;;;18.10;99.90;;;-141.84;48.71;21096.47;5034201;28;20748;-75
2023/05/14 08:24:42;;;;;;;6.32;5.50;;;18.10;99.90;;;-141.84;49.17;21131.03;5033539;28;20592;-74
2023/05/14 08:27:10;;;;;;;5.85;5.25;;;18.30;99.90;;;-141.84;48.53;21165.59;5034405;28;20585;-73
2023/05/14 08:29:38;;;;;;;6.00;5.50;;;18.50;99.90;;;-141.84;47.17;21196.09;5033947;28;20212;-73
2023/05/14 08:32:09;;;;;;;6.10;5.50;;;18.60;99.90;;;-141.84;47.67;21210.31;5034084;28;20209;-72
2023/05/14 08:34:50;;;;;;;6.60;5.50;;;18.60;99.90;;;-141.84;47.24;21255.03;5044369;28;20198;-74
2023/05/14 08:37:19;;;;;;;9.02;6.50;;;18.70;99.90;;;-141.84;47.37;21261.16;5054329;28;20676;-72
2023/05/14 08:39:47;;;;;;;6.45;5.53;;;18.90;99.90;;;-141.84;48.00;21200.16;5052445;28;20266;-72
2023/05/14 08:42:20;;;;;;;7.70;7.00;;;18.80;99.90;;;-141.84;47.27;21301.81;5050246;28;20212;-73
2023/05/14 08:44:53;;;;;;;6.43;5.80;;;18.80;99.90;;;-141.84;47.05;21244.88;5053679;28;20217;-74
2023/05/14 08:47:23;;;;;;;7.00;6.10;;;18.90;99.90;;;-141.84;47.22;21210.31;5053622;28;20200;-73
2023/05/14 08:50:03;;;;;;;6.20;5.70;;;18.80;99.90;;;-141.84;47.50;21212.34;5039925;28;20253;-74
2023/05/14 08:52:31;;;;;;;7.88;7.07;;;18.70;99.90;;;-141.84;47.97;21183.88;5046575;28;20236;-73
2023/05/14 08:55:04;;;;;;;7.13;6.43;;;18.70;99.90;;;-141.84;48.38;21161.53;5052749;28;20197;-72
2023/05/14 08:57:33;;;;;;;8.80;6.05;;;18.60;99.90;;;-141.84;49.19;21181.84;5053458;28;20186;-73
2023/05/14 09:00:07;;;;;;;6.90;6.00;;;18.50;99.90;;;-141.84;48.89;21204.22;5053317;28;20218;-72
2023/05/14 09:02:39;;;;;;;6.75;6.15;;;18.50;99.90;;;-141.84;46.64;21248.94;5053174;28;20220;-73
2023/05/14 09:05:09;;;;;;;6.22;5.72;;;18.60;99.90;;;-141.84;46.00;21287.56;5042954;28;20252;-73
2023/05/14 09:07:37;;;;;;;6.65;6.05;;;18.90;99.90;;;-141.84;45.67;21326.22;5040443;28;20194;-73
2023/05/14 09:10:07;;;;;;;5.97;5.38;;;19.10;99.90;;;-141.84;46.09;21303.84;5051810;28;20201;-72
2023/05/14 09:12:36;;;;;;;6.45;5.80;;;19.20;99.90;;;-141.84;45.45;21326.22;5037016;28;20186;-73
2023/05/14 09:15:06;;;;;;;6.63;5.88;;;19.20;99.90;;;-141.84;46.05;21352.63;5033371;28;20202;-73
2023/05/14 09:17:36;;;;;;;7.90;6.25;;;19.30;99.90;;;-141.84;44.97;21395.34;5033167;28;20206;-73
2023/05/14 09:20:06;;;;;;;6.95;6.20;;;19.40;99.90;;;-141.84;44.66;21468.53;5032772;28;20206;-76
2023/05/14 09:22:35;;;;;;;6.32;5.72;;;19.60;99.90;;;-141.84;44.24;21492.94;5033146;28;20273;-73
2023/05/14 09:25:08;;;;;;;6.88;6.28;;;19.80;99.90;;;-141.84;44.24;21578.31;5032606;28;20202;-73
2023/05/14 09:27:36;;;;;;;6.22;5.63;;;20.00;99.90;;;-141.84;43.99;21513.25;5032977;28;20190;-72
2023/05/14 09:30:10;;;;;;;5.80;5.30;;;20.10;99.90;;;-141.84;43.85;21444.13;5033146;28;20202;-74
2023/05/14 09:32:43;;;;;;;5.72;5.22;;;19.90;99.90;;;-141.84;43.88;21460.41;5032686;28;20237;-73
2023/05/14 09:35:17;;;;;;;6.55;5.95;;;19.90;99.90;;;-141.84;43.58;21580.34;5045813;28;20204;-73
2023/05/14 09:37:47;;;;;;;6.22;5.70;;;20.20;99.90;;;-141.84;43.71;21568.16;5052260;28;20202;-74
2023/05/14 09:40:18;;;;;;;6.13;5.63;;;20.30;99.90;;;-141.84;43.41;21566.13;5051487;28;20211;-73
2023/05/14 09:42:48;;;;;;;5.65;5.07;;;20.10;99.90;;;-141.84;42.61;21631.19;5033015;28;20578;-74
2023/05/14 09:45:17;;;;;;;6.13;5.63;;;20.30;99.90;;;-141.84;42.60;21616.97;5032701;28;20202;-74
2023/05/14 09:47:46;;;;;;;6.13;5.50;;;20.30;99.90;;;-141.84;43.02;21466.50;5032367;28;20214;-74
2023/05/14 09:50:15;;;;;;;6.85;5.47;;;19.90;99.90;;;-141.84;43.22;21468.53;5049056;28;20209;-74
2023/05/14 09:52:43;;;;;;;7.40;5.82;;;19.70;99.90;;;-141.84;43.54;21464.47;5053078;28;20224;-76
2023/05/14 09:55:11;;;;;;;6.53;5.80;;;19.60;99.90;;;-141.84;44.14;21375.00;5051667;28;20232;-75
2023/05/14 09:57:39;;;;;;;6.68;5.25;;;19.50;99.90;;;-141.84;43.38;21460.41;5052145;28;20205;-75
2023/05/14 10:00:11;;;;;;;6.40;5.88;;;19.60;99.90;;;-141.84;43.28;21497.00;5052571;28;20221;-70
2023/05/14 10:02:42;;;;;;;5.28;4.78;;;19.70;99.90;;;-141.84;43.55;21474.63;5032433;28;20198;-75
2023/05/14 10:05:14;;;;;;;5.68;5.15;;;19.70;99.90;;;-141.84;43.68;21497.00;5047137;28;20604;-76
2023/05/14 10:07:47;;;;;;;6.07;5.00;;;19.80;99.90;;;-141.84;42.86;21641.34;5053675;28;20273;-75
2023/05/14 10:10:19;;;;;;;5.68;5.18;;;20.20;99.90;;;-141.84;41.03;21700.31;5055035;28;20217;-73
2023/05/14 10:12:56;;;;;;;5.72;5.22;;;20.40;99.90;;;-141.84;41.61;21665.75;5055159;28;20193;-75